sensor_id;sensor_type;location;lat;lon;timestamp;temperature;humidity
20483;DHT22;10400;53.198;6.592;2023-03-31T00:02:00;10.90;99.90
20483;DHT22;10400;53.198;6.592;2023-03-31T00:04:27;10.80;99.90
20483;DHT22;10400;53.198;6.592;2023-03-31T00:06:56;10.80;99.90
20483;DHT22;10400;53.198;6.592;2023-03-31T00:09:22;10.90;99.90
20483;DHT22;10400;53.198;6.592;2023-03-31T00:11:51;10.90;99.90
20483;DHT22;10400;53.198;6.592;2023-03-31T00:14:18;10.90;99.90
20483;DHT22;10400;53.198;6.592;2023-03-31T00:16:45;10.90;99.90
20483;DHT22;10400;53.198;6.592;2023-03-31T00:19:12;10.90;99.90
20483;DHT22;10400;53.198;6.592;2023-03-31T00:21:46;10.90;99.90
20483;DHT22;10400;53.198;6.592;2023-03-31T00:24:13;10.90;99.90
20483;DHT22;10400;53.198;6.592;2023-03-31T00:26:39;10.90;99.90
20483;DHT22;10400;53.198;6.592;2023-03-31T00:29:06;11.00;99.90
20483;DHT22;10400;53.198;6.592;2023-03-31T00:31:32;10.90;99.90
20483;DHT22;10400;53.198;6.592;2023-03-31T00:33:58;10.90;99.90
20483;DHT22;10400;53.198;6.592;2023-03-31T00:36:24;10.90;99.90
20483;DHT22;10400;53.198;6.592;2023-03-31T00:39:00;10.90;99.90
20483;DHT22;10400;53.198;6.592;2023-03-31T00:41:34;10.80;99.90
20483;DHT22;10400;53.198;6.592;2023-03-31T00:44:17;10.80;99.90
20483;DHT22;10400;53.198;6.592;2023-03-31T00:49:58;10.80;99.90
20483;DHT22;10400;53.198;6.592;2023-03-31T00:52:21;10.70;99.90
20483;DHT22;10400;53.198;6.592;2023-03-31T00:54:51;10.70;99.90
20483;DHT22;10400;53.198;6.592;2023-03-31T00:57:18;10.80;99.90
20483;DHT22;10400;53.198;6.592;2023-03-31T01:00:06;10.80;99.90
20483;DHT22;10400;53.198;6.592;2023-03-31T01:02:40;10.70;99.90
20483;DHT22;10400;53.198;6.592;2023-03-31T01:05:11;10.70;99.90
20483;DHT22;10400;53.198;6.592;2023-03-31T01:07:41;10.70;99.90
20483;DHT22;10400;53.198;6.592;2023-03-31T01:10:08;10.70;99.90
20483;DHT22;10400;53.198;6.592;2023-03-31T01:12:37;10.70;99.90
20483;DHT22;10400;53.198;6.592;2023-03-31T01:15:04;10.60;99.90
20483;DHT22;10400;53.198;6.592;2023-03-31T01:17:30;10.60;99.90
20483;DHT22;10400;53.198;6.592;2023-03-31T01:36:40;10.50;99.90
20483;DHT22;10400;53.198;6.592;2023-03-31T01:39:44;10.50;99.90
20483;DHT22;10400;53.198;6.592;2023-03-31T01:47:54;10.40;99.90
20483;DHT22;10400;53.198;6.592;2023-03-31T01:50:57;10.40;99.90
20483;DHT22;10400;53.198;6.592;2023-03-31T01:53:35;10.40;99.90
20483;DHT22;10400;53.198;6.592;2023-03-31T01:59:10;10.30;99.90
20483;DHT22;10400;53.198;6.592;2023-03-31T02:01:45;10.30;99.90
20483;DHT22;10400;53.198;6.592;2023-03-31T02:04:21;10.30;99.90
20483;DHT22;10400;53.198;6.592;2023-03-31T02:06:52;10.20;99.90
20483;DHT22;10400;53.198;6.592;2023-03-31T02:09:24;10.20;99.90
20483;DHT22;10400;53.198;6.592;2023-03-31T02:11:52;10.20;99.90
20483;DHT22;10400;53.198;6.592;2023-03-31T02:14:22;10.20;99.90
20483;DHT22;10400;53.198;6.592;2023-03-31T02:16:53;10.20;99.90
20483;DHT22;10400;53.198;6.592;2023-03-31T02:19:25;10.20;99.90
20483;DHT22;10400;53.198;6.592;2023-03-31T02:21:52;10.20;99.90
20483;DHT22;10400;53.198;6.592;2023-03-31T02:24:21;10.20;99.90
20483;DHT22;10400;53.198;6.592;2023-03-31T02:27:06;10.20;99.90
20483;DHT22;10400;53.198;6.592;2023-03-31T02:29:34;10.20;99.90
20483;DHT22;10400;53.198;6.592;2023-03-31T02:32:22;10.20;99.90
20483;DHT22;10400;53.198;6.592;2023-03-31T02:34:48;10.20;99.90
20483;DHT22;10400;53.198;6.592;2023-03-31T02:37:14;10.20;99.90
20483;DHT22;10400;53.198;6.592;2023-03-31T02:39:42;10.20;99.90
20483;DHT22;10400;53.198;6.592;2023-03-31T02:42:09;10.20;99.90
20483;DHT22;10400;53.198;6.592;2023-03-31T02:44:36;10.20;99.90
20483;DHT22;10400;53.198;6.592;2023-03-31T02:47:04;10.30;99.90
20483;DHT22;10400;53.198;6.592;2023-03-31T02:49:32;10.30;99.90
20483;DHT22;10400;53.198;6.592;2023-03-31T03:06:10;10.40;99.90
20483;DHT22;10400;53.198;6.592;2023-03-31T03:09:30;10.50;99.90
20483;DHT22;10400;53.198;6.592;2023-03-31T03:20:05;10.40;99.90
20483;DHT22;10400;53.198;6.592;2023-03-31T03:22:36;10.40;99.90
20483;DHT22;10400;53.198;6.592;2023-03-31T03:25:03;10.40;99.90
20483;DHT22;10400;53.198;6.592;2023-03-31T03:27:29;10.40;99.90
20483;DHT22;10400;53.198;6.592;2023-03-31T03:29:55;10.40;99.90
20483;DHT22;10400;53.198;6.592;2023-03-31T03:32:21;10.40;99.90
20483;DHT22;10400;53.198;6.592;2023-03-31T03:34:46;10.30;99.90
20483;DHT22;10400;53.198;6.592;2023-03-31T03:37:12;10.30;99.90
20483;DHT22;10400;53.198;6.592;2023-03-31T03:39:38;10.30;99.90
20483;DHT22;10400;53.198;6.592;2023-03-31T03:42:04;10.30;99.90
20483;DHT22;10400;53.198;6.592;2023-03-31T03:44:30;10.40;99.90
20483;DHT22;10400;53.198;6.592;2023-03-31T03:46:56;10.40;99.90
20483;DHT22;10400;53.198;6.592;2023-03-31T03:49:21;10.40;99.90
20483;DHT22;10400;53.198;6.592;2023-03-31T03:51:47;10.40;99.90
20483;DHT22;10400;53.198;6.592;2023-03-31T03:54:12;10.40;99.90
20483;DHT22;10400;53.198;6.592;2023-03-31T03:56:38;10.40;99.90
20483;DHT22;10400;53.198;6.592;2023-03-31T03:59:04;10.40;99.90
20483;DHT22;10400;53.198;6.592;2023-03-31T04:01:29;10.50;99.90
20483;DHT22;10400;53.198;6.592;2023-03-31T04:03:55;10.50;99.90
20483;DHT22;10400;53.198;6.592;2023-03-31T04:06:21;10.50;99.90
20483;DHT22;10400;53.198;6.592;2023-03-31T04:08:47;10.50;99.90
20483;DHT22;10400;53.198;6.592;2023-03-31T04:11:14;10.50;99.90
20483;DHT22;10400;53.198;6.592;2023-03-31T04:13:42;10.60;99.90
20483;DHT22;10400;53.198;6.592;2023-03-31T04:16:07;10.60;99.90
20483;DHT22;10400;53.198;6.592;2023-03-31T04:18:33;10.60;99.90
20483;DHT22;10400;53.198;6.592;2023-03-31T04:21:02;10.60;99.90
20483;DHT22;10400;53.198;6.592;2023-03-31T04:23:33;10.50;99.90
20483;DHT22;10400;53.198;6.592;2023-03-31T04:25:59;10.60;99.90
20483;DHT22;10400;53.198;6.592;2023-03-31T04:28:25;10.60;99.90
20483;DHT22;10400;53.198;6.592;2023-03-31T04:30:52;10.70;99.90
20483;DHT22;10400;53.198;6.592;2023-03-31T04:33:23;10.70;99.90
20483;DHT22;10400;53.198;6.592;2023-03-31T04:35:48;10.70;99.90
20483;DHT22;10400;53.198;6.592;2023-03-31T04:38:24;10.70;99.90
20483;DHT22;10400;53.198;6.592;2023-03-31T04:40:52;10.60;99.90
20483;DHT22;10400;53.198;6.592;2023-03-31T04:43:19;10.60;99.90
20483;DHT22;10400;53.198;6.592;2023-03-31T04:45:45;10.60;99.90
20483;DHT22;10400;53.198;6.592;2023-03-31T04:48:11;10.60;99.90
20483;DHT22;10400;53.198;6.592;2023-03-31T04:50:37;10.70;99.90
20483;DHT22;10400;53.198;6.592;2023-03-31T04:53:03;10.70;99.90
20483;DHT22;10400;53.198;6.592;2023-03-31T04:55:29;10.60;99.90
20483;DHT22;10400;53.198;6.592;2023-03-31T04:57:55;10.70;99.90
20483;DHT22;10400;53.198;6.592;2023-03-31T05:00:21;10.70;99.90
20483;DHT22;10400;53.198;6.592;2023-03-31T05:02:47;10.60;99.90
20483;DHT22;10400;53.198;6.592;2023-03-31T05:05:13;10.60;99.90
20483;DHT22;10400;53.198;6.592;2023-03-31T05:07:39;10.60;99.90
20483;DHT22;10400;53.198;6.592;2023-03-31T05:10:05;10.60;99.90
20483;DHT22;10400;53.198;6.592;2023-03-31T05:12:35;10.60;99.90
20483;DHT22;10400;53.198;6.592;2023-03-31T05:15:01;10.60;99.90
20483;DHT22;10400;53.198;6.592;2023-03-31T05:17:29;10.50;99.90
20483;DHT22;10400;53.198;6.592;2023-03-31T05:19:55;10.50;99.90
20483;DHT22;10400;53.198;6.592;2023-03-31T05:22:21;10.60;99.90
20483;DHT22;10400;53.198;6.592;2023-03-31T05:24:46;10.60;99.90
20483;DHT22;10400;53.198;6.592;2023-03-31T05:27:12;10.60;99.90
20483;DHT22;10400;53.198;6.592;2023-03-31T05:29:38;10.60;99.90
20483;DHT22;10400;53.198;6.592;2023-03-31T05:32:04;10.60;99.90
20483;DHT22;10400;53.198;6.592;2023-03-31T05:34:30;10.60;99.90
20483;DHT22;10400;53.198;6.592;2023-03-31T05:36:55;10.60;99.90
20483;DHT22;10400;53.198;6.592;2023-03-31T05:39:22;10.60;99.90
20483;DHT22;10400;53.198;6.592;2023-03-31T05:41:47;10.70;99.90
20483;DHT22;10400;53.198;6.592;2023-03-31T05:44:13;10.60;99.90
20483;DHT22;10400;53.198;6.592;2023-03-31T05:46:38;10.60;99.90
20483;DHT22;10400;53.198;6.592;2023-03-31T05:49:05;10.60;99.90
20483;DHT22;10400;53.198;6.592;2023-03-31T05:51:32;10.60;99.90
20483;DHT22;10400;53.198;6.592;2023-03-31T05:53:57;10.70;99.90
20483;DHT22;10400;53.198;6.592;2023-03-31T05:56:23;10.70;99.90
20483;DHT22;10400;53.198;6.592;2023-03-31T05:58:49;10.70;99.90
20483;DHT22;10400;53.198;6.592;2023-03-31T06:01:16;10.60;99.90
20483;DHT22;10400;53.198;6.592;2023-03-31T06:03:47;10.60;99.90
20483;DHT22;10400;53.198;6.592;2023-03-31T06:06:13;10.70;99.90
20483;DHT22;10400;53.198;6.592;2023-03-31T06:08:39;10.70;99.90
20483;DHT22;10400;53.198;6.592;2023-03-31T06:11:06;10.70;99.90
20483;DHT22;10400;53.198;6.592;2023-03-31T06:13:33;10.70;99.90
20483;DHT22;10400;53.198;6.592;2023-03-31T06:16:00;10.70;99.90
20483;DHT22;10400;53.198;6.592;2023-03-31T06:18:27;10.70;99.90
20483;DHT22;10400;53.198;6.592;2023-03-31T06:20:54;10.70;99.90
20483;DHT22;10400;53.198;6.592;2023-03-31T06:23:20;10.70;99.90
20483;DHT22;10400;53.198;6.592;2023-03-31T06:25:46;10.70;99.90
20483;DHT22;10400;53.198;6.592;2023-03-31T06:28:12;10.70;99.90
20483;DHT22;10400;53.198;6.592;2023-03-31T06:30:38;10.70;99.90
20483;DHT22;10400;53.198;6.592;2023-03-31T06:33:04;10.80;99.90
20483;DHT22;10400;53.198;6.592;2023-03-31T06:35:30;10.70;99.90
20483;DHT22;10400;53.198;6.592;2023-03-31T06:37:55;10.80;99.90
20483;DHT22;10400;53.198;6.592;2023-03-31T06:40:22;10.80;99.90
20483;DHT22;10400;53.198;6.592;2023-03-31T06:42:47;10.80;99.90
20483;DHT22;10400;53.198;6.592;2023-03-31T06:45:13;10.80;99.90
20483;DHT22;10400;53.198;6.592;2023-03-31T06:47:39;10.80;99.90
20483;DHT22;10400;53.198;6.592;2023-03-31T06:50:07;10.80;99.90
20483;DHT22;10400;53.198;6.592;2023-03-31T06:52:34;10.80;99.90
20483;DHT22;10400;53.198;6.592;2023-03-31T06:54:59;10.80;99.90
20483;DHT22;10400;53.198;6.592;2023-03-31T06:57:26;10.80;99.90
20483;DHT22;10400;53.198;6.592;2023-03-31T06:59:52;10.90;99.90
20483;DHT22;10400;53.198;6.592;2023-03-31T07:02:18;10.90;99.90
20483;DHT22;10400;53.198;6.592;2023-03-31T07:04:43;10.90;99.90
20483;DHT22;10400;53.198;6.592;2023-03-31T07:07:09;10.90;99.90
20483;DHT22;10400;53.198;6.592;2023-03-31T07:09:35;10.90;99.90
20483;DHT22;10400;53.198;6.592;2023-03-31T07:12:01;10.90;99.90
20483;DHT22;10400;53.198;6.592;2023-03-31T07:14:30;10.90;99.90
20483;DHT22;10400;53.198;6.592;2023-03-31T07:16:56;11.00;99.90
20483;DHT22;10400;53.198;6.592;2023-03-31T07:19:22;10.90;99.90
20483;DHT22;10400;53.198;6.592;2023-03-31T07:21:48;10.90;99.90
20483;DHT22;10400;53.198;6.592;2023-03-31T07:24:13;10.90;99.90
20483;DHT22;10400;53.198;6.592;2023-03-31T07:26:39;10.90;99.90
20483;DHT22;10400;53.198;6.592;2023-03-31T07:29:05;10.90;99.90
20483;DHT22;10400;53.198;6.592;2023-03-31T07:31:31;11.00;99.90
20483;DHT22;10400;53.198;6.592;2023-03-31T07:33:56;11.00;99.90
20483;DHT22;10400;53.198;6.592;2023-03-31T07:36:22;11.00;99.90
20483;DHT22;10400;53.198;6.592;2023-03-31T07:38:48;11.10;99.90
20483;DHT22;10400;53.198;6.592;2023-03-31T07:41:17;11.00;99.90
20483;DHT22;10400;53.198;6.592;2023-03-31T07:43:44;11.10;99.90
20483;DHT22;10400;53.198;6.592;2023-03-31T07:46:18;11.10;99.90
20483;DHT22;10400;53.198;6.592;2023-03-31T07:48:44;11.10;99.90
20483;DHT22;10400;53.198;6.592;2023-03-31T07:51:14;11.10;99.90
20483;DHT22;10400;53.198;6.592;2023-03-31T07:53:41;11.10;99.90
20483;DHT22;10400;53.198;6.592;2023-03-31T07:56:07;11.10;99.90
20483;DHT22;10400;53.198;6.592;2023-03-31T07:58:33;11.10;99.90
20483;DHT22;10400;53.198;6.592;2023-03-31T08:00:59;11.10;99.90
20483;DHT22;10400;53.198;6.592;2023-03-31T08:03:25;11.20;99.90
20483;DHT22;10400;53.198;6.592;2023-03-31T08:05:51;11.20;99.90
20483;DHT22;10400;53.198;6.592;2023-03-31T08:08:17;11.20;99.90
20483;DHT22;10400;53.198;6.592;2023-03-31T08:10:43;11.10;99.90
20483;DHT22;10400;53.198;6.592;2023-03-31T08:13:09;11.10;99.90
20483;DHT22;10400;53.198;6.592;2023-03-31T08:15:34;11.00;99.90
20483;DHT22;10400;53.198;6.592;2023-03-31T08:18:00;11.00;99.90
20483;DHT22;10400;53.198;6.592;2023-03-31T08:20:27;11.00;99.90
20483;DHT22;10400;53.198;6.592;2023-03-31T08:22:52;11.10;99.90
20483;DHT22;10400;53.198;6.592;2023-03-31T08:25:18;11.10;99.90
20483;DHT22;10400;53.198;6.592;2023-03-31T08:27:45;11.00;99.90
20483;DHT22;10400;53.198;6.592;2023-03-31T08:30:16;11.00;99.90
20483;DHT22;10400;53.198;6.592;2023-03-31T08:32:41;11.10;99.90
20483;DHT22;10400;53.198;6.592;2023-03-31T08:35:07;11.00;99.90
20483;DHT22;10400;53.198;6.592;2023-03-31T08:37:34;11.00;99.90
20483;DHT22;10400;53.198;6.592;2023-03-31T08:40:00;11.00;99.90
20483;DHT22;10400;53.198;6.592;2023-03-31T08:42:48;11.00;99.90
20483;DHT22;10400;53.198;6.592;2023-03-31T08:45:24;11.00;99.90
20483;DHT22;10400;53.198;6.592;2023-03-31T08:47:56;11.10;99.90
20483;DHT22;10400;53.198;6.592;2023-03-31T08:50:24;11.10;99.90
20483;DHT22;10400;53.198;6.592;2023-03-31T08:53:06;11.10;99.90
20483;DHT22;10400;53.198;6.592;2023-03-31T08:55:43;11.00;99.90
20483;DHT22;10400;53.198;6.592;2023-03-31T09:12:27;11.30;99.90
20483;DHT22;10400;53.198;6.592;2023-03-31T09:15:01;11.30;99.90
20483;DHT22;10400;53.198;6.592;2023-03-31T09:17:43;11.20;99.90
20483;DHT22;10400;53.198;6.592;2023-03-31T09:22:56;11.30;99.90
20483;DHT22;10400;53.198;6.592;2023-03-31T09:25:30;11.30;99.90
20483;DHT22;10400;53.198;6.592;2023-03-31T09:27:58;11.40;99.90
20483;DHT22;10400;53.198;6.592;2023-03-31T09:30:29;11.40;99.90
20483;DHT22;10400;53.198;6.592;2023-03-31T09:33:25;11.50;99.90
20483;DHT22;10400;53.198;6.592;2023-03-31T09:36:00;11.40;99.90
20483;DHT22;10400;53.198;6.592;2023-03-31T09:38:26;11.50;99.90
20483;DHT22;10400;53.198;6.592;2023-03-31T09:41:00;11.50;99.90
20483;DHT22;10400;53.198;6.592;2023-03-31T09:43:28;11.50;99.90
20483;DHT22;10400;53.198;6.592;2023-03-31T09:45:55;11.60;99.90
20483;DHT22;10400;53.198;6.592;2023-03-31T09:48:25;11.60;99.90
20483;DHT22;10400;53.198;6.592;2023-03-31T09:50:57;11.70;99.90
20483;DHT22;10400;53.198;6.592;2023-03-31T09:56:31;11.80;99.90
20483;DHT22;10400;53.198;6.592;2023-03-31T09:59:01;11.90;99.90
20483;DHT22;10400;53.198;6.592;2023-03-31T10:01:28;12.00;99.90
20483;DHT22;10400;53.198;6.592;2023-03-31T10:03:54;12.10;99.90
20483;DHT22;10400;53.198;6.592;2023-03-31T10:06:22;12.20;99.90
20483;DHT22;10400;53.198;6.592;2023-03-31T10:08:57;12.30;99.90
20483;DHT22;10400;53.198;6.592;2023-03-31T10:11:24;12.40;99.90
20483;DHT22;10400;53.198;6.592;2023-03-31T10:13:52;12.50;99.90
20483;DHT22;10400;53.198;6.592;2023-03-31T10:19:17;12.50;99.90
20483;DHT22;10400;53.198;6.592;2023-03-31T10:21:46;12.50;99.90
20483;DHT22;10400;53.198;6.592;2023-03-31T10:24:17;12.50;99.90
20483;DHT22;10400;53.198;6.592;2023-03-31T10:26:47;12.40;99.90
20483;DHT22;10400;53.198;6.592;2023-03-31T10:29:22;12.50;99.90
20483;DHT22;10400;53.198;6.592;2023-03-31T10:31:50;12.50;99.90
20483;DHT22;10400;53.198;6.592;2023-03-31T10:34:17;12.50;99.90
20483;DHT22;10400;53.198;6.592;2023-03-31T10:36:49;12.40;99.90
20483;DHT22;10400;53.198;6.592;2023-03-31T10:39:17;12.30;99.90
20483;DHT22;10400;53.198;6.592;2023-03-31T10:41:51;12.20;99.90
20483;DHT22;10400;53.198;6.592;2023-03-31T10:44:43;12.20;99.90
20483;DHT22;10400;53.198;6.592;2023-03-31T10:49:39;12.10;99.90
20483;DHT22;10400;53.198;6.592;2023-03-31T10:52:21;12.20;99.90
20483;DHT22;10400;53.198;6.592;2023-03-31T10:55:10;12.20;99.90
20483;DHT22;10400;53.198;6.592;2023-03-31T10:57:52;12.50;99.90
20483;DHT22;10400;53.198;6.592;2023-03-31T11:00:35;12.50;99.90
20483;DHT22;10400;53.198;6.592;2023-03-31T11:06:38;12.60;99.90
20483;DHT22;10400;53.198;6.592;2023-03-31T11:12:23;12.80;99.90
20483;DHT22;10400;53.198;6.592;2023-03-31T11:20:54;13.10;99.90
20483;DHT22;10400;53.198;6.592;2023-03-31T11:23:39;12.90;99.90
20483;DHT22;10400;53.198;6.592;2023-03-31T11:29:05;13.10;99.90
20483;DHT22;10400;53.198;6.592;2023-03-31T11:34:26;13.40;99.90
20483;DHT22;10400;53.198;6.592;2023-03-31T11:42:26;14.10;99.90
20483;DHT22;10400;53.198;6.592;2023-03-31T11:44:56;14.40;99.90
20483;DHT22;10400;53.198;6.592;2023-03-31T11:47:29;14.60;99.90
20483;DHT22;10400;53.198;6.592;2023-03-31T11:50:02;14.60;97.00
20483;DHT22;10400;53.198;6.592;2023-03-31T11:52:34;14.70;84.80
20483;DHT22;10400;53.198;6.592;2023-03-31T11:55:06;14.50;49.50
20483;DHT22;10400;53.198;6.592;2023-03-31T11:57:57;14.60;57.30
20483;DHT22;10400;53.198;6.592;2023-03-31T12:00:31;14.60;58.80
20483;DHT22;10400;53.198;6.592;2023-03-31T12:05:27;14.20;34.30
20483;DHT22;10400;53.198;6.592;2023-03-31T12:10:44;13.90;78.10
20483;DHT22;10400;53.198;6.592;2023-03-31T12:16:11;13.50;99.90
20483;DHT22;10400;53.198;6.592;2023-03-31T12:21:21;13.50;99.90
20483;DHT22;10400;53.198;6.592;2023-03-31T12:23:48;13.40;99.90
20483;DHT22;10400;53.198;6.592;2023-03-31T12:26:30;13.50;99.90
20483;DHT22;10400;53.198;6.592;2023-03-31T12:28:59;13.40;99.90
20483;DHT22;10400;53.198;6.592;2023-03-31T12:31:29;13.30;99.90
20483;DHT22;10400;53.198;6.592;2023-03-31T12:34:04;13.20;99.90
20483;DHT22;10400;53.198;6.592;2023-03-31T12:39:25;13.40;99.90
20483;DHT22;10400;53.198;6.592;2023-03-31T12:53:12;13.70;99.90
20483;DHT22;10400;53.198;6.592;2023-03-31T12:55:44;14.10;99.90
20483;DHT22;10400;53.198;6.592;2023-03-31T13:01:14;14.60;99.90
20483;DHT22;10400;53.198;6.592;2023-03-31T13:14:27;14.90;65.10
20483;DHT22;10400;53.198;6.592;2023-03-31T13:17:11;15.00;82.60
20483;DHT22;10400;53.198;6.592;2023-03-31T13:19:39;14.90;44.90
20483;DHT22;10400;53.198;6.592;2023-03-31T13:22:06;14.80;27.40
20483;DHT22;10400;53.198;6.592;2023-03-31T13:24:51;14.80;50.80
20483;DHT22;10400;53.198;6.592;2023-03-31T13:27:29;14.80;62.50
20483;DHT22;10400;53.198;6.592;2023-03-31T13:29:57;14.80;65.90
20483;DHT22;10400;53.198;6.592;2023-03-31T13:32:24;14.80;52.50
20483;DHT22;10400;53.198;6.592;2023-03-31T13:37:48;14.80;36.30
20483;DHT22;10400;53.198;6.592;2023-03-31T13:48:31;14.50;48.30
20483;DHT22;10400;53.198;6.592;2023-03-31T13:51:24;14.40;85.40
20483;DHT22;10400;53.198;6.592;2023-03-31T13:54:17;14.40;80.70
20483;DHT22;10400;53.198;6.592;2023-03-31T14:07:39;13.20;80.60
20483;DHT22;10400;53.198;6.592;2023-03-31T14:13:14;13.00;99.20
20483;DHT22;10400;53.198;6.592;2023-03-31T14:15:51;13.20;99.90
20483;DHT22;10400;53.198;6.592;2023-03-31T14:18:28;13.30;99.90
20483;DHT22;10400;53.198;6.592;2023-03-31T14:24:00;13.60;97.30
20483;DHT22;10400;53.198;6.592;2023-03-31T14:29:19;13.70;91.80
20483;DHT22;10400;53.198;6.592;2023-03-31T14:37:03;13.60;82.30
20483;DHT22;10400;53.198;6.592;2023-03-31T14:39:51;13.50;90.20
20483;DHT22;10400;53.198;6.592;2023-03-31T14:42:28;13.60;96.50
20483;DHT22;10400;53.198;6.592;2023-03-31T14:45:02;13.80;95.90
20483;DHT22;10400;53.198;6.592;2023-03-31T14:47:28;14.20;99.90
20483;DHT22;10400;53.198;6.592;2023-03-31T14:50:15;14.50;99.90
20483;DHT22;10400;53.198;6.592;2023-03-31T14:52:51;14.60;95.40
20483;DHT22;10400;53.198;6.592;2023-03-31T14:55:22;14.80;81.20
20483;DHT22;10400;53.198;6.592;2023-03-31T14:57:49;14.70;38.30
20483;DHT22;10400;53.198;6.592;2023-03-31T15:00:26;14.70;38.30
20483;DHT22;10400;53.198;6.592;2023-03-31T15:02:53;14.70;39.70
20483;DHT22;10400;53.198;6.592;2023-03-31T15:05:27;14.50;28.50
20483;DHT22;10400;53.198;6.592;2023-03-31T15:07:58;14.50;16.40
20483;DHT22;10400;53.198;6.592;2023-03-31T15:10:32;14.50;22.30
20483;DHT22;10400;53.198;6.592;2023-03-31T15:13:01;14.40;7.50
20483;DHT22;10400;53.198;6.592;2023-03-31T15:15:32;14.30;1.00
20483;DHT22;10400;53.198;6.592;2023-03-31T15:17:57;14.20;1.00
20483;DHT22;10400;53.198;6.592;2023-03-31T15:20:26;14.30;1.00
20483;DHT22;10400;53.198;6.592;2023-03-31T15:22:56;14.40;1.00
20483;DHT22;10400;53.198;6.592;2023-03-31T15:25:30;14.20;1.00
20483;DHT22;10400;53.198;6.592;2023-03-31T15:28:03;14.10;1.00
20483;DHT22;10400;53.198;6.592;2023-03-31T15:30:31;14.20;1.00
20483;DHT22;10400;53.198;6.592;2023-03-31T15:32:57;14.20;1.00
20483;DHT22;10400;53.198;6.592;2023-03-31T15:37:51;14.10;1.00
20483;DHT22;10400;53.198;6.592;2023-03-31T15:40:27;13.90;1.00
20483;DHT22;10400;53.198;6.592;2023-03-31T15:45:49;13.90;1.00
20483;DHT22;10400;53.198;6.592;2023-03-31T15:48:19;14.00;6.10
20483;DHT22;10400;53.198;6.592;2023-03-31T15:50:45;13.90;9.10
20483;DHT22;10400;53.198;6.592;2023-03-31T15:55:55;13.90;4.90
20483;DHT22;10400;53.198;6.592;2023-03-31T15:58:23;13.70;5.90
20483;DHT22;10400;53.198;6.592;2023-03-31T16:00:52;13.70;2.60
20483;DHT22;10400;53.198;6.592;2023-03-31T16:03:33;13.60;7.60
20483;DHT22;10400;53.198;6.592;2023-03-31T16:08:44;13.60;28.20
20483;DHT22;10400;53.198;6.592;2023-03-31T16:11:21;13.60;11.70
20483;DHT22;10400;53.198;6.592;2023-03-31T16:13:51;13.60;23.10
20483;DHT22;10400;53.198;6.592;2023-03-31T16:16:22;13.50;17.20
20483;DHT22;10400;53.198;6.592;2023-03-31T16:19:08;13.50;31.80
20483;DHT22;10400;53.198;6.592;2023-03-31T16:21:46;13.60;30.40
20483;DHT22;10400;53.198;6.592;2023-03-31T16:24:15;13.60;34.20
20483;DHT22;10400;53.198;6.592;2023-03-31T16:26:41;13.60;28.60
20483;DHT22;10400;53.198;6.592;2023-03-31T16:29:07;13.60;26.70
20483;DHT22;10400;53.198;6.592;2023-03-31T16:31:38;13.60;36.60
20483;DHT22;10400;53.198;6.592;2023-03-31T16:34:09;13.60;41.00
20483;DHT22;10400;53.198;6.592;2023-03-31T16:36:35;13.60;42.20
20483;DHT22;10400;53.198;6.592;2023-03-31T16:39:02;13.60;37.00
20483;DHT22;10400;53.198;6.592;2023-03-31T16:41:31;13.60;47.60
20483;DHT22;10400;53.198;6.592;2023-03-31T16:43:57;13.60;47.70
20483;DHT22;10400;53.198;6.592;2023-03-31T16:46:23;13.60;38.40
20483;DHT22;10400;53.198;6.592;2023-03-31T16:48:49;13.60;59.80
20483;DHT22;10400;53.198;6.592;2023-03-31T16:51:16;13.60;64.70
20483;DHT22;10400;53.198;6.592;2023-03-31T16:53:42;13.50;67.00
20483;DHT22;10400;53.198;6.592;2023-03-31T16:56:09;13.40;84.40
20483;DHT22;10400;53.198;6.592;2023-03-31T16:58:37;13.30;83.10
20483;DHT22;10400;53.198;6.592;2023-03-31T17:01:04;13.30;98.00
20483;DHT22;10400;53.198;6.592;2023-03-31T17:03:31;13.30;99.90
20483;DHT22;10400;53.198;6.592;2023-03-31T17:05:57;13.30;99.90
20483;DHT22;10400;53.198;6.592;2023-03-31T17:08:24;13.20;99.90
20483;DHT22;10400;53.198;6.592;2023-03-31T17:10:52;13.20;99.90
20483;DHT22;10400;53.198;6.592;2023-03-31T17:13:19;13.30;99.90
20483;DHT22;10400;53.198;6.592;2023-03-31T17:15:45;13.20;99.90
20483;DHT22;10400;53.198;6.592;2023-03-31T17:18:10;13.10;99.90
20483;DHT22;10400;53.198;6.592;2023-03-31T17:20:36;13.00;99.90
20483;DHT22;10400;53.198;6.592;2023-03-31T17:23:02;12.90;99.90
20483;DHT22;10400;53.198;6.592;2023-03-31T17:25:28;12.80;99.90
20483;DHT22;10400;53.198;6.592;2023-03-31T17:27:54;12.80;99.90
20483;DHT22;10400;53.198;6.592;2023-03-31T17:30:21;12.60;99.90
20483;DHT22;10400;53.198;6.592;2023-03-31T17:32:47;12.70;99.90
20483;DHT22;10400;53.198;6.592;2023-03-31T17:35:13;12.70;99.90
20483;DHT22;10400;53.198;6.592;2023-03-31T17:37:45;12.70;99.90
20483;DHT22;10400;53.198;6.592;2023-03-31T17:40:11;12.70;99.90
20483;DHT22;10400;53.198;6.592;2023-03-31T17:42:37;12.70;99.90
20483;DHT22;10400;53.198;6.592;2023-03-31T17:45:03;12.60;99.90
20483;DHT22;10400;53.198;6.592;2023-03-31T17:47:30;12.60;99.90
20483;DHT22;10400;53.198;6.592;2023-03-31T17:49:56;12.60;99.90
20483;DHT22;10400;53.198;6.592;2023-03-31T17:52:22;12.60;99.90
20483;DHT22;10400;53.198;6.592;2023-03-31T17:54:47;12.50;99.90
20483;DHT22;10400;53.198;6.592;2023-03-31T17:57:13;12.40;99.90
20483;DHT22;10400;53.198;6.592;2023-03-31T17:59:39;12.40;99.90
20483;DHT22;10400;53.198;6.592;2023-03-31T18:02:04;12.40;99.90
20483;DHT22;10400;53.198;6.592;2023-03-31T18:04:30;12.40;99.90
20483;DHT22;10400;53.198;6.592;2023-03-31T18:06:56;12.30;99.90
20483;DHT22;10400;53.198;6.592;2023-03-31T18:09:22;12.30;99.90
20483;DHT22;10400;53.198;6.592;2023-03-31T18:11:49;12.20;99.90
20483;DHT22;10400;53.198;6.592;2023-03-31T18:14:15;12.20;99.90
20483;DHT22;10400;53.198;6.592;2023-03-31T18:16:41;12.20;99.90
20483;DHT22;10400;53.198;6.592;2023-03-31T18:19:07;12.10;99.90
20483;DHT22;10400;53.198;6.592;2023-03-31T18:21:33;12.10;99.90
20483;DHT22;10400;53.198;6.592;2023-03-31T18:23:59;12.10;99.90
20483;DHT22;10400;53.198;6.592;2023-03-31T18:26:25;12.10;99.90
20483;DHT22;10400;53.198;6.592;2023-03-31T18:28:52;12.10;99.90
20483;DHT22;10400;53.198;6.592;2023-03-31T18:31:18;12.10;99.90
20483;DHT22;10400;53.198;6.592;2023-03-31T18:33:45;12.10;99.90
20483;DHT22;10400;53.198;6.592;2023-03-31T18:36:16;12.10;99.90
20483;DHT22;10400;53.198;6.592;2023-03-31T18:38:44;12.10;99.90
20483;DHT22;10400;53.198;6.592;2023-03-31T18:41:10;12.10;99.90
20483;DHT22;10400;53.198;6.592;2023-03-31T18:43:35;12.10;99.90
20483;DHT22;10400;53.198;6.592;2023-03-31T18:46:01;12.20;99.90
20483;DHT22;10400;53.198;6.592;2023-03-31T18:48:27;12.10;99.90
20483;DHT22;10400;53.198;6.592;2023-03-31T18:50:53;12.10;99.90
20483;DHT22;10400;53.198;6.592;2023-03-31T18:53:20;12.10;99.90